sensor_id;sensor_type;location;lat;lon;timestamp;temperature;humidity
48488;DHT22;34289;48.572;13.378;2023-03-17T00:00:41;-1.20;99.90
48488;DHT22;34289;48.572;13.378;2023-03-17T00:03:24;0.30;99.90
48488;DHT22;34289;48.572;13.378;2023-03-17T00:05:52;-1.50;99.90
48488;DHT22;34289;48.572;13.378;2023-03-17T00:08:24;-1.40;99.90
48488;DHT22;34289;48.572;13.378;2023-03-17T00:10:51;-1.30;99.90
48488;DHT22;34289;48.572;13.378;2023-03-17T00:13:16;-1.40;99.90
48488;DHT22;34289;48.572;13.378;2023-03-17T00:15:44;-1.30;99.90
48488;DHT22;34289;48.572;13.378;2023-03-17T00:18:15;-1.40;99.90
48488;DHT22;34289;48.572;13.378;2023-03-17T00:20:42;-1.40;99.90
48488;DHT22;34289;48.572;13.378;2023-03-17T00:23:14;-1.40;99.90
48488;DHT22;34289;48.572;13.378;2023-03-17T00:25:40;-1.50;99.90
48488;DHT22;34289;48.572;13.378;2023-03-17T00:28:27;-1.30;99.90
48488;DHT22;34289;48.572;13.378;2023-03-17T00:30:55;-1.40;99.90
48488;DHT22;34289;48.572;13.378;2023-03-17T00:33:29;-1.40;99.90
48488;DHT22;34289;48.572;13.378;2023-03-17T00:35:57;-1.40;99.90
48488;DHT22;34289;48.572;13.378;2023-03-17T00:38:23;-1.40;99.90
48488;DHT22;34289;48.572;13.378;2023-03-17T00:40:50;-1.20;99.90
48488;DHT22;34289;48.572;13.378;2023-03-17T00:43:16;-1.40;99.90
48488;DHT22;34289;48.572;13.378;2023-03-17T00:45:42;-1.40;99.90
48488;DHT22;34289;48.572;13.378;2023-03-17T00:48:16;-1.50;99.90
48488;DHT22;34289;48.572;13.378;2023-03-17T00:50:42;-1.50;99.90
48488;DHT22;34289;48.572;13.378;2023-03-17T00:53:12;-1.80;99.90
48488;DHT22;34289;48.572;13.378;2023-03-17T00:55:38;-1.60;99.90
48488;DHT22;34289;48.572;13.378;2023-03-17T00:58:33;-1.60;99.90
48488;DHT22;34289;48.572;13.378;2023-03-17T01:00:59;-1.60;99.90
48488;DHT22;34289;48.572;13.378;2023-03-17T01:03:26;-1.60;99.90
48488;DHT22;34289;48.572;13.378;2023-03-17T01:05:52;-1.50;99.90
48488;DHT22;34289;48.572;13.378;2023-03-17T01:08:20;-1.50;99.90
48488;DHT22;34289;48.572;13.378;2023-03-17T01:10:46;-1.40;99.90
48488;DHT22;34289;48.572;13.378;2023-03-17T01:13:13;-1.50;99.90
48488;DHT22;34289;48.572;13.378;2023-03-17T01:15:41;-1.40;99.90
48488;DHT22;34289;48.572;13.378;2023-03-17T01:18:11;-1.60;99.90
48488;DHT22;34289;48.572;13.378;2023-03-17T01:20:37;-1.80;99.90
48488;DHT22;34289;48.572;13.378;2023-03-17T01:23:04;-1.90;99.90
48488;DHT22;34289;48.572;13.378;2023-03-17T01:25:30;-1.80;99.90
48488;DHT22;34289;48.572;13.378;2023-03-17T01:27:56;-1.90;99.90
48488;DHT22;34289;48.572;13.378;2023-03-17T01:30:34;-1.90;99.90
48488;DHT22;34289;48.572;13.378;2023-03-17T01:33:02;-1.90;99.90
48488;DHT22;34289;48.572;13.378;2023-03-17T01:35:28;-1.80;99.90
48488;DHT22;34289;48.572;13.378;2023-03-17T01:37:55;-1.70;99.90
48488;DHT22;34289;48.572;13.378;2023-03-17T01:40:33;-1.60;99.90
48488;DHT22;34289;48.572;13.378;2023-03-17T01:48:39;-1.70;99.90
48488;DHT22;34289;48.572;13.378;2023-03-17T01:51:08;-1.80;99.90
48488;DHT22;34289;48.572;13.378;2023-03-17T01:53:35;-2.10;99.90
48488;DHT22;34289;48.572;13.378;2023-03-17T01:56:02;-2.40;99.90
48488;DHT22;34289;48.572;13.378;2023-03-17T01:58:29;-2.30;99.90
48488;DHT22;34289;48.572;13.378;2023-03-17T02:00:55;-2.20;99.90
48488;DHT22;34289;48.572;13.378;2023-03-17T02:03:21;-2.20;99.90
48488;DHT22;34289;48.572;13.378;2023-03-17T02:05:50;-2.00;99.90
48488;DHT22;34289;48.572;13.378;2023-03-17T02:08:16;-2.00;99.90
48488;DHT22;34289;48.572;13.378;2023-03-17T02:10:43;-2.00;99.90
48488;DHT22;34289;48.572;13.378;2023-03-17T02:13:12;-1.90;99.90
48488;DHT22;34289;48.572;13.378;2023-03-17T02:15:49;-2.10;99.90
48488;DHT22;34289;48.572;13.378;2023-03-17T02:18:17;-2.30;99.90
48488;DHT22;34289;48.572;13.378;2023-03-17T02:23:16;-2.00;99.90
48488;DHT22;34289;48.572;13.378;2023-03-17T02:25:44;-2.10;99.90
48488;DHT22;34289;48.572;13.378;2023-03-17T02:28:14;-2.20;99.90
48488;DHT22;34289;48.572;13.378;2023-03-17T02:30:41;-2.00;99.90
48488;DHT22;34289;48.572;13.378;2023-03-17T02:33:07;-2.20;99.90
48488;DHT22;34289;48.572;13.378;2023-03-17T02:35:33;-2.40;99.90
48488;DHT22;34289;48.572;13.378;2023-03-17T02:37:59;-2.10;99.90
48488;DHT22;34289;48.572;13.378;2023-03-17T02:40:25;-2.10;99.90
48488;DHT22;34289;48.572;13.378;2023-03-17T02:42:51;-2.00;99.90
48488;DHT22;34289;48.572;13.378;2023-03-17T02:45:19;-2.00;99.90
48488;DHT22;34289;48.572;13.378;2023-03-17T02:47:44;-2.00;99.90
48488;DHT22;34289;48.572;13.378;2023-03-17T02:50:22;-1.90;99.90
48488;DHT22;34289;48.572;13.378;2023-03-17T02:52:49;-1.90;99.90
48488;DHT22;34289;48.572;13.378;2023-03-17T02:55:15;-2.00;99.90
48488;DHT22;34289;48.572;13.378;2023-03-17T02:57:41;-1.80;99.90
48488;DHT22;34289;48.572;13.378;2023-03-17T03:00:08;-1.90;99.90
48488;DHT22;34289;48.572;13.378;2023-03-17T03:02:35;-2.20;99.90
48488;DHT22;34289;48.572;13.378;2023-03-17T03:05:01;-2.20;99.90
48488;DHT22;34289;48.572;13.378;2023-03-17T03:07:27;-2.20;99.90
48488;DHT22;34289;48.572;13.378;2023-03-17T03:09:53;-2.20;99.90
48488;DHT22;34289;48.572;13.378;2023-03-17T03:12:19;-2.20;99.90
48488;DHT22;34289;48.572;13.378;2023-03-17T03:14:44;-2.40;99.90
48488;DHT22;34289;48.572;13.378;2023-03-17T03:17:10;-2.40;99.90
48488;DHT22;34289;48.572;13.378;2023-03-17T03:19:36;-2.50;99.90
48488;DHT22;34289;48.572;13.378;2023-03-17T03:22:01;-2.30;99.90
48488;DHT22;34289;48.572;13.378;2023-03-17T03:24:28;-2.20;99.90
48488;DHT22;34289;48.572;13.378;2023-03-17T03:26:53;-2.00;99.90
48488;DHT22;34289;48.572;13.378;2023-03-17T03:29:19;-1.90;99.90
48488;DHT22;34289;48.572;13.378;2023-03-17T03:31:44;-2.00;99.90
48488;DHT22;34289;48.572;13.378;2023-03-17T03:34:13;-2.40;99.90
48488;DHT22;34289;48.572;13.378;2023-03-17T03:36:39;-2.30;99.90
48488;DHT22;34289;48.572;13.378;2023-03-17T03:39:05;-2.40;99.90
48488;DHT22;34289;48.572;13.378;2023-03-17T03:41:30;-2.40;99.90
48488;DHT22;34289;48.572;13.378;2023-03-17T03:43:56;-2.30;99.90
48488;DHT22;34289;48.572;13.378;2023-03-17T03:46:21;-2.50;99.90
48488;DHT22;34289;48.572;13.378;2023-03-17T03:48:47;-2.40;99.90
48488;DHT22;34289;48.572;13.378;2023-03-17T03:51:13;-2.50;99.90
48488;DHT22;34289;48.572;13.378;2023-03-17T03:53:38;-2.20;99.90
48488;DHT22;34289;48.572;13.378;2023-03-17T03:56:04;-2.10;99.90
48488;DHT22;34289;48.572;13.378;2023-03-17T03:58:30;-2.40;99.90
48488;DHT22;34289;48.572;13.378;2023-03-17T04:00:55;-2.50;99.90
48488;DHT22;34289;48.572;13.378;2023-03-17T04:03:21;-2.10;99.90
48488;DHT22;34289;48.572;13.378;2023-03-17T04:05:47;-2.30;99.90
48488;DHT22;34289;48.572;13.378;2023-03-17T04:08:12;-2.70;99.90
48488;DHT22;34289;48.572;13.378;2023-03-17T04:10:38;-2.50;99.90
48488;DHT22;34289;48.572;13.378;2023-03-17T04:13:04;-2.50;99.90
48488;DHT22;34289;48.572;13.378;2023-03-17T04:15:29;-2.30;99.90
48488;DHT22;34289;48.572;13.378;2023-03-17T04:17:55;-2.30;99.90
48488;DHT22;34289;48.572;13.378;2023-03-17T04:20:21;-2.30;99.90
48488;DHT22;34289;48.572;13.378;2023-03-17T04:22:46;-2.30;99.90
48488;DHT22;34289;48.572;13.378;2023-03-17T04:25:14;-2.40;99.90
48488;DHT22;34289;48.572;13.378;2023-03-17T04:27:40;-2.40;99.90
48488;DHT22;34289;48.572;13.378;2023-03-17T04:30:08;-2.30;99.90
48488;DHT22;34289;48.572;13.378;2023-03-17T04:32:35;-2.20;99.90
48488;DHT22;34289;48.572;13.378;2023-03-17T04:35:00;-2.10;99.90
48488;DHT22;34289;48.572;13.378;2023-03-17T04:37:26;-2.30;99.90
48488;DHT22;34289;48.572;13.378;2023-03-17T04:39:52;-2.40;99.90
48488;DHT22;34289;48.572;13.378;2023-03-17T04:42:17;-2.60;99.90
48488;DHT22;34289;48.572;13.378;2023-03-17T04:44:43;-2.50;99.90
48488;DHT22;34289;48.572;13.378;2023-03-17T04:47:09;-2.40;99.90
48488;DHT22;34289;48.572;13.378;2023-03-17T04:49:35;-2.50;99.90
48488;DHT22;34289;48.572;13.378;2023-03-17T04:52:01;-2.40;99.90
48488;DHT22;34289;48.572;13.378;2023-03-17T04:54:26;-2.30;99.90
48488;DHT22;34289;48.572;13.378;2023-03-17T04:56:52;-2.30;99.90
48488;DHT22;34289;48.572;13.378;2023-03-17T04:59:18;-2.60;99.90
48488;DHT22;34289;48.572;13.378;2023-03-17T05:01:44;-2.60;99.90
48488;DHT22;34289;48.572;13.378;2023-03-17T05:04:09;-2.70;99.90
48488;DHT22;34289;48.572;13.378;2023-03-17T05:06:35;-2.60;99.90
48488;DHT22;34289;48.572;13.378;2023-03-17T05:09:02;-2.70;99.90
48488;DHT22;34289;48.572;13.378;2023-03-17T05:11:28;-2.70;99.90
48488;DHT22;34289;48.572;13.378;2023-03-17T05:13:53;-2.70;99.90
48488;DHT22;34289;48.572;13.378;2023-03-17T05:16:19;-2.80;99.90
48488;DHT22;34289;48.572;13.378;2023-03-17T05:18:46;-3.00;99.90
48488;DHT22;34289;48.572;13.378;2023-03-17T05:21:12;-2.80;99.90
48488;DHT22;34289;48.572;13.378;2023-03-17T05:23:38;-2.80;99.90
48488;DHT22;34289;48.572;13.378;2023-03-17T05:26:04;-2.70;99.90
48488;DHT22;34289;48.572;13.378;2023-03-17T05:28:30;-2.80;99.90
48488;DHT22;34289;48.572;13.378;2023-03-17T05:30:57;-3.10;99.90
48488;DHT22;34289;48.572;13.378;2023-03-17T05:33:22;-3.10;99.90
48488;DHT22;34289;48.572;13.378;2023-03-17T05:35:49;-3.10;99.90
48488;DHT22;34289;48.572;13.378;2023-03-17T05:38:15;-2.80;99.90
48488;DHT22;34289;48.572;13.378;2023-03-17T05:40:41;-2.60;99.90
48488;DHT22;34289;48.572;13.378;2023-03-17T05:43:07;-2.50;99.90
48488;DHT22;34289;48.572;13.378;2023-03-17T05:45:33;-2.40;99.90
48488;DHT22;34289;48.572;13.378;2023-03-17T05:47:59;-2.10;99.90
48488;DHT22;34289;48.572;13.378;2023-03-17T05:50:25;-2.10;99.90
48488;DHT22;34289;48.572;13.378;2023-03-17T05:52:51;-2.10;99.90
48488;DHT22;34289;48.572;13.378;2023-03-17T05:55:18;-2.10;99.90
48488;DHT22;34289;48.572;13.378;2023-03-17T05:57:43;-1.80;99.90
48488;DHT22;34289;48.572;13.378;2023-03-17T06:00:10;-1.50;99.90
48488;DHT22;34289;48.572;13.378;2023-03-17T06:02:37;-1.80;99.90
48488;DHT22;34289;48.572;13.378;2023-03-17T06:05:03;-2.30;99.90
48488;DHT22;34289;48.572;13.378;2023-03-17T06:07:29;-2.50;99.90
48488;DHT22;34289;48.572;13.378;2023-03-17T06:09:55;-2.60;99.90
48488;DHT22;34289;48.572;13.378;2023-03-17T06:12:20;-2.30;99.90
48488;DHT22;34289;48.572;13.378;2023-03-17T06:14:46;-2.00;99.90
48488;DHT22;34289;48.572;13.378;2023-03-17T06:17:12;-1.90;99.90
48488;DHT22;34289;48.572;13.378;2023-03-17T06:19:37;-1.90;99.90
48488;DHT22;34289;48.572;13.378;2023-03-17T06:22:03;-1.70;99.90
48488;DHT22;34289;48.572;13.378;2023-03-17T06:24:29;-1.70;99.90
48488;DHT22;34289;48.572;13.378;2023-03-17T06:26:55;-1.80;99.90
48488;DHT22;34289;48.572;13.378;2023-03-17T06:29:20;-1.80;99.90
48488;DHT22;34289;48.572;13.378;2023-03-17T06:31:47;-1.50;99.90
48488;DHT22;34289;48.572;13.378;2023-03-17T06:34:19;-1.30;99.90
48488;DHT22;34289;48.572;13.378;2023-03-17T06:36:45;-0.80;99.90
48488;DHT22;34289;48.572;13.378;2023-03-17T06:39:11;-0.70;99.90
48488;DHT22;34289;48.572;13.378;2023-03-17T06:41:37;-0.60;99.90
48488;DHT22;34289;48.572;13.378;2023-03-17T06:44:03;-0.60;99.90
48488;DHT22;34289;48.572;13.378;2023-03-17T06:46:30;-0.10;99.90
48488;DHT22;34289;48.572;13.378;2023-03-17T06:48:56;0.80;99.90
48488;DHT22;34289;48.572;13.378;2023-03-17T06:51:22;1.80;99.90
48488;DHT22;34289;48.572;13.378;2023-03-17T06:53:47;2.70;99.90
48488;DHT22;34289;48.572;13.378;2023-03-17T06:56:13;3.90;99.90
48488;DHT22;34289;48.572;13.378;2023-03-17T06:58:38;5.70;99.90
48488;DHT22;34289;48.572;13.378;2023-03-17T07:01:04;4.80;99.90
48488;DHT22;34289;48.572;13.378;2023-03-17T07:03:32;5.30;99.90
48488;DHT22;34289;48.572;13.378;2023-03-17T07:05:58;5.10;99.90
48488;DHT22;34289;48.572;13.378;2023-03-17T07:08:24;6.00;99.90
48488;DHT22;34289;48.572;13.378;2023-03-17T07:10:52;5.70;99.90
48488;DHT22;34289;48.572;13.378;2023-03-17T07:13:18;6.00;99.90
48488;DHT22;34289;48.572;13.378;2023-03-17T07:15:45;6.30;99.90
48488;DHT22;34289;48.572;13.378;2023-03-17T07:18:10;6.90;99.90
48488;DHT22;34289;48.572;13.378;2023-03-17T07:20:36;7.80;99.90
48488;DHT22;34289;48.572;13.378;2023-03-17T07:23:02;8.50;99.90
48488;DHT22;34289;48.572;13.378;2023-03-17T07:25:28;8.80;99.90
48488;DHT22;34289;48.572;13.378;2023-03-17T07:27:53;9.20;99.90
48488;DHT22;34289;48.572;13.378;2023-03-17T07:30:20;9.10;99.50
48488;DHT22;34289;48.572;13.378;2023-03-17T07:32:46;8.80;99.90
48488;DHT22;34289;48.572;13.378;2023-03-17T07:35:13;8.60;99.90
48488;DHT22;34289;48.572;13.378;2023-03-17T07:37:40;9.50;99.90
48488;DHT22;34289;48.572;13.378;2023-03-17T07:40:06;7.90;99.90
48488;DHT22;34289;48.572;13.378;2023-03-17T07:42:34;7.90;99.90
48488;DHT22;34289;48.572;13.378;2023-03-17T07:44:59;7.90;99.90
48488;DHT22;34289;48.572;13.378;2023-03-17T07:47:25;7.90;99.90
48488;DHT22;34289;48.572;13.378;2023-03-17T07:49:51;8.40;99.90
48488;DHT22;34289;48.572;13.378;2023-03-17T07:52:17;8.70;99.90
48488;DHT22;34289;48.572;13.378;2023-03-17T07:54:43;8.60;99.90
48488;DHT22;34289;48.572;13.378;2023-03-17T07:57:09;8.50;99.90
48488;DHT22;34289;48.572;13.378;2023-03-17T07:59:35;9.10;99.90
48488;DHT22;34289;48.572;13.378;2023-03-17T08:02:01;9.10;99.90
48488;DHT22;34289;48.572;13.378;2023-03-17T08:04:27;9.60;99.90
48488;DHT22;34289;48.572;13.378;2023-03-17T08:06:53;10.00;99.90
48488;DHT22;34289;48.572;13.378;2023-03-17T08:09:19;10.50;98.90
48488;DHT22;34289;48.572;13.378;2023-03-17T08:11:47;10.90;98.40
48488;DHT22;34289;48.572;13.378;2023-03-17T08:14:13;10.80;97.30
48488;DHT22;34289;48.572;13.378;2023-03-17T08:16:38;10.80;97.40
48488;DHT22;34289;48.572;13.378;2023-03-17T08:19:04;11.30;96.10
48488;DHT22;34289;48.572;13.378;2023-03-17T08:21:30;11.60;95.30
48488;DHT22;34289;48.572;13.378;2023-03-17T08:23:56;11.70;93.90
48488;DHT22;34289;48.572;13.378;2023-03-17T08:26:22;11.80;92.20
48488;DHT22;34289;48.572;13.378;2023-03-17T08:28:48;11.70;91.80
48488;DHT22;34289;48.572;13.378;2023-03-17T08:31:16;11.60;90.50
48488;DHT22;34289;48.572;13.378;2023-03-17T08:33:46;11.60;90.50
48488;DHT22;34289;48.572;13.378;2023-03-17T08:36:13;11.70;91.30
48488;DHT22;34289;48.572;13.378;2023-03-17T08:38:41;11.70;92.10
48488;DHT22;34289;48.572;13.378;2023-03-17T08:41:09;12.10;92.30
48488;DHT22;34289;48.572;13.378;2023-03-17T08:43:37;12.20;92.50
48488;DHT22;34289;48.572;13.378;2023-03-17T08:46:23;11.40;91.10
48488;DHT22;34289;48.572;13.378;2023-03-17T08:48:50;10.90;91.00
48488;DHT22;34289;48.572;13.378;2023-03-17T08:51:16;10.90;90.80
48488;DHT22;34289;48.572;13.378;2023-03-17T08:53:42;11.70;91.50
48488;DHT22;34289;48.572;13.378;2023-03-17T08:56:09;11.20;90.70
48488;DHT22;34289;48.572;13.378;2023-03-17T08:58:36;12.00;90.50
48488;DHT22;34289;48.572;13.378;2023-03-17T09:01:04;12.40;89.30
48488;DHT22;34289;48.572;13.378;2023-03-17T09:03:32;12.40;90.30
48488;DHT22;34289;48.572;13.378;2023-03-17T09:05:58;12.40;90.50
48488;DHT22;34289;48.572;13.378;2023-03-17T09:08:24;12.80;86.70
48488;DHT22;34289;48.572;13.378;2023-03-17T09:10:51;13.20;88.70
48488;DHT22;34289;48.572;13.378;2023-03-17T09:13:16;13.60;86.80
48488;DHT22;34289;48.572;13.378;2023-03-17T09:15:43;14.00;85.20
48488;DHT22;34289;48.572;13.378;2023-03-17T09:18:10;14.00;85.50
48488;DHT22;34289;48.572;13.378;2023-03-17T09:20:36;14.20;85.00
48488;DHT22;34289;48.572;13.378;2023-03-17T09:23:05;14.20;83.10
48488;DHT22;34289;48.572;13.378;2023-03-17T09:25:34;14.30;84.50
48488;DHT22;34289;48.572;13.378;2023-03-17T09:28:00;14.50;83.00
48488;DHT22;34289;48.572;13.378;2023-03-17T09:30:26;14.40;82.70
48488;DHT22;34289;48.572;13.378;2023-03-17T09:32:52;14.50;85.10
48488;DHT22;34289;48.572;13.378;2023-03-17T09:35:18;14.80;82.30
48488;DHT22;34289;48.572;13.378;2023-03-17T09:37:46;15.10;81.60
48488;DHT22;34289;48.572;13.378;2023-03-17T09:40:15;15.00;85.70
48488;DHT22;34289;48.572;13.378;2023-03-17T09:45:46;15.40;79.20
48488;DHT22;34289;48.572;13.378;2023-03-17T09:48:49;15.70;81.00
48488;DHT22;34289;48.572;13.378;2023-03-17T09:51:17;15.70;78.60
48488;DHT22;34289;48.572;13.378;2023-03-17T09:54:02;15.80;77.30
48488;DHT22;34289;48.572;13.378;2023-03-17T09:56:31;15.80;77.60
48488;DHT22;34289;48.572;13.378;2023-03-17T09:59:04;15.60;75.50
48488;DHT22;34289;48.572;13.378;2023-03-17T10:01:30;15.50;78.40
48488;DHT22;34289;48.572;13.378;2023-03-17T10:03:56;15.90;78.60
48488;DHT22;34289;48.572;13.378;2023-03-17T10:06:32;15.90;79.40
48488;DHT22;34289;48.572;13.378;2023-03-17T10:09:15;15.60;77.80
48488;DHT22;34289;48.572;13.378;2023-03-17T10:11:42;15.40;76.80
48488;DHT22;34289;48.572;13.378;2023-03-17T10:17:23;15.80;79.30
48488;DHT22;34289;48.572;13.378;2023-03-17T10:20:13;16.20;76.70
48488;DHT22;34289;48.572;13.378;2023-03-17T10:23:04;16.20;77.30
48488;DHT22;34289;48.572;13.378;2023-03-17T10:25:34;16.20;75.60
48488;DHT22;34289;48.572;13.378;2023-03-17T10:28:31;15.70;76.60
48488;DHT22;34289;48.572;13.378;2023-03-17T10:31:16;15.30;78.80
48488;DHT22;34289;48.572;13.378;2023-03-17T10:33:43;15.50;78.40
48488;DHT22;34289;48.572;13.378;2023-03-17T10:36:14;15.80;76.70
48488;DHT22;34289;48.572;13.378;2023-03-17T10:38:49;16.00;73.80
48488;DHT22;34289;48.572;13.378;2023-03-17T10:41:16;16.00;76.20
48488;DHT22;34289;48.572;13.378;2023-03-17T10:43:47;16.30;75.40
48488;DHT22;34289;48.572;13.378;2023-03-17T10:46:21;16.40;74.20
48488;DHT22;34289;48.572;13.378;2023-03-17T10:48:53;16.50;77.40
48488;DHT22;34289;48.572;13.378;2023-03-17T10:51:30;16.70;76.80
48488;DHT22;34289;48.572;13.378;2023-03-17T10:53:59;16.80;76.60
48488;DHT22;34289;48.572;13.378;2023-03-17T10:56:27;16.90;81.60
48488;DHT22;34289;48.572;13.378;2023-03-17T10:59:05;17.10;76.90
48488;DHT22;34289;48.572;13.378;2023-03-17T11:01:39;17.00;75.50
48488;DHT22;34289;48.572;13.378;2023-03-17T11:04:34;17.20;76.00
48488;DHT22;34289;48.572;13.378;2023-03-17T11:07:06;17.10;74.80
48488;DHT22;34289;48.572;13.378;2023-03-17T11:09:35;17.10;74.80
48488;DHT22;34289;48.572;13.378;2023-03-17T11:14:47;17.30;79.00
48488;DHT22;34289;48.572;13.378;2023-03-17T11:25:24;17.80;78.40
48488;DHT22;34289;48.572;13.378;2023-03-17T11:27:59;17.60;77.70
48488;DHT22;34289;48.572;13.378;2023-03-17T11:30:41;17.50;78.10
48488;DHT22;34289;48.572;13.378;2023-03-17T11:36:02;17.50;77.00
48488;DHT22;34289;48.572;13.378;2023-03-17T11:38:33;16.90;76.00
48488;DHT22;34289;48.572;13.378;2023-03-17T11:47:00;16.40;76.50
48488;DHT22;34289;48.572;13.378;2023-03-17T11:49:36;16.30;77.40
48488;DHT22;34289;48.572;13.378;2023-03-17T12:00:30;17.10;78.70
48488;DHT22;34289;48.572;13.378;2023-03-17T12:06:02;16.70;76.80
48488;DHT22;34289;48.572;13.378;2023-03-17T12:08:42;16.70;79.70
48488;DHT22;34289;48.572;13.378;2023-03-17T12:11:17;16.60;77.70
48488;DHT22;34289;48.572;13.378;2023-03-17T12:13:48;16.70;78.70
48488;DHT22;34289;48.572;13.378;2023-03-17T12:16:22;16.80;78.00
48488;DHT22;34289;48.572;13.378;2023-03-17T12:19:10;16.70;78.50
48488;DHT22;34289;48.572;13.378;2023-03-17T12:22:04;16.60;77.80
48488;DHT22;34289;48.572;13.378;2023-03-17T12:29:43;17.10;79.50
48488;DHT22;34289;48.572;13.378;2023-03-17T12:32:37;17.40;79.20
48488;DHT22;34289;48.572;13.378;2023-03-17T12:35:26;17.50;78.10
48488;DHT22;34289;48.572;13.378;2023-03-17T12:37:54;17.70;77.10
48488;DHT22;34289;48.572;13.378;2023-03-17T12:40:31;17.50;79.70
48488;DHT22;34289;48.572;13.378;2023-03-17T12:46:14;17.10;79.40
48488;DHT22;34289;48.572;13.378;2023-03-17T12:53:59;17.30;77.60
48488;DHT22;34289;48.572;13.378;2023-03-17T12:56:27;17.40;78.70
48488;DHT22;34289;48.572;13.378;2023-03-17T12:59:02;17.80;80.50
48488;DHT22;34289;48.572;13.378;2023-03-17T13:01:31;18.10;78.50
48488;DHT22;34289;48.572;13.378;2023-03-17T13:12:00;17.30;78.80
48488;DHT22;34289;48.572;13.378;2023-03-17T13:14:38;17.50;79.30
48488;DHT22;34289;48.572;13.378;2023-03-17T13:24:51;17.40;79.40
48488;DHT22;34289;48.572;13.378;2023-03-17T13:29:59;17.10;79.80
48488;DHT22;34289;48.572;13.378;2023-03-17T13:44:30;17.30;77.70
48488;DHT22;34289;48.572;13.378;2023-03-17T13:47:50;17.30;80.60
48488;DHT22;34289;48.572;13.378;2023-03-17T13:50:29;17.40;77.00
48488;DHT22;34289;48.572;13.378;2023-03-17T13:53:07;17.60;80.20
48488;DHT22;34289;48.572;13.378;2023-03-17T13:55:40;17.70;77.90
48488;DHT22;34289;48.572;13.378;2023-03-17T14:00:34;17.40;77.00
48488;DHT22;34289;48.572;13.378;2023-03-17T14:03:07;17.20;77.80
48488;DHT22;34289;48.572;13.378;2023-03-17T14:05:36;17.10;78.20
48488;DHT22;34289;48.572;13.378;2023-03-17T14:10:59;17.10;77.50
48488;DHT22;34289;48.572;13.378;2023-03-17T14:13:30;17.30;78.60
48488;DHT22;34289;48.572;13.378;2023-03-17T14:16:14;17.20;79.60
48488;DHT22;34289;48.572;13.378;2023-03-17T14:18:45;17.30;78.10
48488;DHT22;34289;48.572;13.378;2023-03-17T14:21:22;17.40;78.40
48488;DHT22;34289;48.572;13.378;2023-03-17T14:23:56;17.50;79.60
48488;DHT22;34289;48.572;13.378;2023-03-17T14:26:24;17.60;76.20
48488;DHT22;34289;48.572;13.378;2023-03-17T14:28:51;17.80;76.90
48488;DHT22;34289;48.572;13.378;2023-03-17T14:31:24;17.90;77.60
48488;DHT22;34289;48.572;13.378;2023-03-17T14:33:56;17.90;78.00
48488;DHT22;34289;48.572;13.378;2023-03-17T14:36:23;17.70;75.30
48488;DHT22;34289;48.572;13.378;2023-03-17T14:38:51;17.50;78.30
48488;DHT22;34289;48.572;13.378;2023-03-17T14:41:28;17.30;77.00
48488;DHT22;34289;48.572;13.378;2023-03-17T14:43:58;17.10;78.00
48488;DHT22;34289;48.572;13.378;2023-03-17T14:46:35;16.90;78.90
48488;DHT22;34289;48.572;13.378;2023-03-17T14:49:19;16.70;76.60
48488;DHT22;34289;48.572;13.378;2023-03-17T14:51:48;16.00;79.20
48488;DHT22;34289;48.572;13.378;2023-03-17T14:56:47;16.50;77.90
48488;DHT22;34289;48.572;13.378;2023-03-17T15:01:45;16.40;79.40
48488;DHT22;34289;48.572;13.378;2023-03-17T15:04:20;16.30;79.30
48488;DHT22;34289;48.572;13.378;2023-03-17T15:06:52;16.30;78.10
48488;DHT22;34289;48.572;13.378;2023-03-17T15:09:29;16.20;80.80
48488;DHT22;34289;48.572;13.378;2023-03-17T15:12:04;16.30;83.30
48488;DHT22;34289;48.572;13.378;2023-03-17T15:14:36;16.20;80.40
48488;DHT22;34289;48.572;13.378;2023-03-17T15:17:05;16.10;77.70
48488;DHT22;34289;48.572;13.378;2023-03-17T15:19:40;16.00;83.80
48488;DHT22;34289;48.572;13.378;2023-03-17T15:22:39;16.00;82.70
48488;DHT22;34289;48.572;13.378;2023-03-17T15:25:41;15.60;81.80
48488;DHT22;34289;48.572;13.378;2023-03-17T15:28:11;16.10;82.10
48488;DHT22;34289;48.572;13.378;2023-03-17T15:30:41;16.10;82.30
48488;DHT22;34289;48.572;13.378;2023-03-17T15:33:34;16.00;83.60
48488;DHT22;34289;48.572;13.378;2023-03-17T15:36:01;15.80;83.60
48488;DHT22;34289;48.572;13.378;2023-03-17T15:38:27;15.50;85.30
48488;DHT22;34289;48.572;13.378;2023-03-17T15:40:53;15.30;85.40
48488;DHT22;34289;48.572;13.378;2023-03-17T15:43:20;15.00;85.00
48488;DHT22;34289;48.572;13.378;2023-03-17T15:45:50;14.90;86.10
48488;DHT22;34289;48.572;13.378;2023-03-17T15:48:22;14.90;85.30
48488;DHT22;34289;48.572;13.378;2023-03-17T15:50:50;14.90;85.40
48488;DHT22;34289;48.572;13.378;2023-03-17T15:53:16;14.90;86.90
48488;DHT22;34289;48.572;13.378;2023-03-17T15:55:42;14.90;85.50
48488;DHT22;34289;48.572;13.378;2023-03-17T15:58:08;14.90;85.50
48488;DHT22;34289;48.572;13.378;2023-03-17T16:00:34;14.80;86.90
48488;DHT22;34289;48.572;13.378;2023-03-17T16:05:51;14.60;87.50
48488;DHT22;34289;48.572;13.378;2023-03-17T16:08:16;14.40;86.50
48488;DHT22;34289;48.572;13.378;2023-03-17T16:10:43;14.30;87.20
48488;DHT22;34289;48.572;13.378;2023-03-17T16:13:09;14.30;88.00
48488;DHT22;34289;48.572;13.378;2023-03-17T16:15:37;14.30;86.40
48488;DHT22;34289;48.572;13.378;2023-03-17T16:18:06;14.20;88.30
48488;DHT22;34289;48.572;13.378;2023-03-17T16:20:42;14.20;87.50
48488;DHT22;34289;48.572;13.378;2023-03-17T16:23:14;14.10;86.90
48488;DHT22;34289;48.572;13.378;2023-03-17T16:25:40;14.00;87.60
48488;DHT22;34289;48.572;13.378;2023-03-17T16:28:19;14.00;89.50
48488;DHT22;34289;48.572;13.378;2023-03-17T16:30:46;13.90;87.70
48488;DHT22;34289;48.572;13.378;2023-03-17T16:35:49;13.90;87.90
48488;DHT22;34289;48.572;13.378;2023-03-17T16:38:23;14.00;90.00
48488;DHT22;34289;48.572;13.378;2023-03-17T16:40:54;13.70;89.20
48488;DHT22;34289;48.572;13.378;2023-03-17T16:43:29;13.60;90.00
48488;DHT22;34289;48.572;13.378;2023-03-17T16:46:00;13.60;90.20
48488;DHT22;34289;48.572;13.378;2023-03-17T16:48:27;13.50;89.70
48488;DHT22;34289;48.572;13.378;2023-03-17T16:50:54;13.60;91.90
48488;DHT22;34289;48.572;13.378;2023-03-17T16:53:20;13.60;90.10
48488;DHT22;34289;48.572;13.378;2023-03-17T16:55:46;13.50;90.80
48488;DHT22;34289;48.572;13.378;2023-03-17T16:58:19;13.20;90.80
48488;DHT22;34289;48.572;13.378;2023-03-17T17:00:47;13.00;91.80
48488;DHT22;34289;48.572;13.378;2023-03-17T17:03:13;12.80;92.00
48488;DHT22;34289;48.572;13.378;2023-03-17T17:05:40;12.70;92.60
48488;DHT22;34289;48.572;13.378;2023-03-17T17:08:06;13.00;90.40
48488;DHT22;34289;48.572;13.378;2023-03-17T17:10:32;12.80;90.50
48488;DHT22;34289;48.572;13.378;2023-03-17T17:12:59;12.80;91.50
48488;DHT22;34289;48.572;13.378;2023-03-17T17:15:26;12.60;92.90